Amity, Indiana
Current Conditions -  °F | °C
As of 3:15 AM on Monday 24 Nov 2014 (Local Time) from K1II Reporting Station
Broken Clouds Broken Clouds  
Wind Chill: 14°   Ceiling: 4300
Heat Index: 14°   Visibility: 10mi
Dew Point: 12°   Wind: 18mph
Humidity: 88%   Direction: 210°SSW
Pressure: 29.27"   Gusts: 24mph
Location:  39.4841°N, 86.0843°W
Report Text: K1II 240815Z AUTO 21016G21KT 10SM SCT015 SCT022 BKN043 14/12 A2927 RMK AO2
Loading
Personal Weather Stations






























Interactive Weather Map New forecast layout! Learn more

10-Day Weather Forecast

Advertisements
Track Severe Weather on mobile